sensor_id;sensor_type;location;lat;lon;timestamp;temperature;humidity
7028;DHT22;3555;53.248;10.336;2023-04-01T00:00:59;10.40;99.90
7028;DHT22;3555;53.248;10.336;2023-04-01T00:03:28;10.50;99.90
7028;DHT22;3555;53.248;10.336;2023-04-01T00:05:57;10.50;99.90
7028;DHT22;3555;53.248;10.336;2023-04-01T00:08:26;10.50;99.90
7028;DHT22;3555;53.248;10.336;2023-04-01T00:10:53;10.50;99.90
7028;DHT22;3555;53.248;10.336;2023-04-01T00:13:21;10.40;99.90
7028;DHT22;3555;53.248;10.336;2023-04-01T00:15:48;10.40;99.90
7028;DHT22;3555;53.248;10.336;2023-04-01T00:18:15;10.40;99.90
7028;DHT22;3555;53.248;10.336;2023-04-01T00:20:45;10.30;99.90
7028;DHT22;3555;53.248;10.336;2023-04-01T00:23:12;10.30;99.90
7028;DHT22;3555;53.248;10.336;2023-04-01T00:25:39;10.20;99.90
7028;DHT22;3555;53.248;10.336;2023-04-01T00:28:06;10.20;99.90
7028;DHT22;3555;53.248;10.336;2023-04-01T00:30:33;10.20;99.90
7028;DHT22;3555;53.248;10.336;2023-04-01T00:32:59;10.20;99.90
7028;DHT22;3555;53.248;10.336;2023-04-01T00:35:26;10.30;99.90
7028;DHT22;3555;53.248;10.336;2023-04-01T00:37:55;10.20;99.90
7028;DHT22;3555;53.248;10.336;2023-04-01T00:40:26;10.20;99.90
7028;DHT22;3555;53.248;10.336;2023-04-01T00:42:54;10.20;99.90
7028;DHT22;3555;53.248;10.336;2023-04-01T00:45:30;10.20;99.90
7028;DHT22;3555;53.248;10.336;2023-04-01T00:48:00;10.00;99.90
7028;DHT22;3555;53.248;10.336;2023-04-01T00:50:28;10.00;99.90
7028;DHT22;3555;53.248;10.336;2023-04-01T00:53:00;9.90;99.90
7028;DHT22;3555;53.248;10.336;2023-04-01T00:55:30;9.90;99.90
7028;DHT22;3555;53.248;10.336;2023-04-01T00:57:59;9.90;99.90
7028;DHT22;3555;53.248;10.336;2023-04-01T01:00:26;9.90;99.90
7028;DHT22;3555;53.248;10.336;2023-04-01T01:02:53;9.90;99.90
7028;DHT22;3555;53.248;10.336;2023-04-01T01:05:26;10.10;99.90
7028;DHT22;3555;53.248;10.336;2023-04-01T01:08:02;9.90;99.90
7028;DHT22;3555;53.248;10.336;2023-04-01T01:10:33;9.90;99.90
7028;DHT22;3555;53.248;10.336;2023-04-01T01:13:06;9.80;99.90
7028;DHT22;3555;53.248;10.336;2023-04-01T01:15:40;9.90;99.90
7028;DHT22;3555;53.248;10.336;2023-04-01T01:18:14;9.90;99.90
7028;DHT22;3555;53.248;10.336;2023-04-01T01:21:21;10.10;99.90
7028;DHT22;3555;53.248;10.336;2023-04-01T01:24:24;10.00;99.90
7028;DHT22;3555;53.248;10.336;2023-04-01T01:27:04;10.00;99.90
7028;DHT22;3555;53.248;10.336;2023-04-01T01:29:58;10.10;99.90
7028;DHT22;3555;53.248;10.336;2023-04-01T01:32:54;10.10;99.90
7028;DHT22;3555;53.248;10.336;2023-04-01T01:35:26;10.20;99.90
7028;DHT22;3555;53.248;10.336;2023-04-01T01:37:57;10.20;99.90
7028;DHT22;3555;53.248;10.336;2023-04-01T01:40:26;10.10;99.90
7028;DHT22;3555;53.248;10.336;2023-04-01T01:42:57;10.00;99.90
7028;DHT22;3555;53.248;10.336;2023-04-01T01:45:27;10.10;99.90
7028;DHT22;3555;53.248;10.336;2023-04-01T01:47:57;10.20;99.90
7028;DHT22;3555;53.248;10.336;2023-04-01T01:50:27;10.10;99.90
7028;DHT22;3555;53.248;10.336;2023-04-01T01:53:05;10.10;99.90
7028;DHT22;3555;53.248;10.336;2023-04-01T01:55:34;10.10;99.90
7028;DHT22;3555;53.248;10.336;2023-04-01T01:58:06;10.00;99.90
7028;DHT22;3555;53.248;10.336;2023-04-01T02:00:35;9.80;99.90
7028;DHT22;3555;53.248;10.336;2023-04-01T02:03:03;9.60;99.90
7028;DHT22;3555;53.248;10.336;2023-04-01T02:05:32;9.70;99.90
7028;DHT22;3555;53.248;10.336;2023-04-01T02:08:04;9.60;99.90
7028;DHT22;3555;53.248;10.336;2023-04-01T02:10:36;9.60;99.90
7028;DHT22;3555;53.248;10.336;2023-04-01T02:13:11;9.70;99.90
7028;DHT22;3555;53.248;10.336;2023-04-01T02:15:44;9.80;99.90
7028;DHT22;3555;53.248;10.336;2023-04-01T02:18:13;9.70;99.90
7028;DHT22;3555;53.248;10.336;2023-04-01T02:20:42;9.80;99.90
7028;DHT22;3555;53.248;10.336;2023-04-01T02:23:11;9.80;99.90
7028;DHT22;3555;53.248;10.336;2023-04-01T02:25:39;9.60;99.90
7028;DHT22;3555;53.248;10.336;2023-04-01T02:28:09;9.60;99.90
7028;DHT22;3555;53.248;10.336;2023-04-01T02:30:38;9.70;99.90
7028;DHT22;3555;53.248;10.336;2023-04-01T02:33:08;9.70;99.90
7028;DHT22;3555;53.248;10.336;2023-04-01T02:35:35;9.60;99.90
7028;DHT22;3555;53.248;10.336;2023-04-01T02:38:05;9.50;99.90
7028;DHT22;3555;53.248;10.336;2023-04-01T02:40:45;9.60;99.90
7028;DHT22;3555;53.248;10.336;2023-04-01T02:43:12;9.60;99.90
7028;DHT22;3555;53.248;10.336;2023-04-01T02:45:39;9.50;99.90
7028;DHT22;3555;53.248;10.336;2023-04-01T02:48:06;9.60;99.90
7028;DHT22;3555;53.248;10.336;2023-04-01T02:50:33;9.50;99.90
7028;DHT22;3555;53.248;10.336;2023-04-01T02:53:01;9.60;99.90
7028;DHT22;3555;53.248;10.336;2023-04-01T02:55:30;9.70;99.90
7028;DHT22;3555;53.248;10.336;2023-04-01T02:57:57;9.60;99.90
7028;DHT22;3555;53.248;10.336;2023-04-01T03:00:24;9.40;99.90
7028;DHT22;3555;53.248;10.336;2023-04-01T03:02:51;9.60;99.90
7028;DHT22;3555;53.248;10.336;2023-04-01T03:05:19;9.60;99.90
7028;DHT22;3555;53.248;10.336;2023-04-01T03:07:46;9.80;99.90
7028;DHT22;3555;53.248;10.336;2023-04-01T03:10:13;9.70;99.90
7028;DHT22;3555;53.248;10.336;2023-04-01T03:12:41;9.80;99.90
7028;DHT22;3555;53.248;10.336;2023-04-01T03:15:10;9.80;99.90
7028;DHT22;3555;53.248;10.336;2023-04-01T03:17:38;9.80;99.90
7028;DHT22;3555;53.248;10.336;2023-04-01T03:20:06;9.80;99.90
7028;DHT22;3555;53.248;10.336;2023-04-01T03:22:33;9.70;99.90
7028;DHT22;3555;53.248;10.336;2023-04-01T03:25:00;9.80;99.90
7028;DHT22;3555;53.248;10.336;2023-04-01T03:27:27;9.80;99.90
7028;DHT22;3555;53.248;10.336;2023-04-01T03:29:56;9.70;99.90
7028;DHT22;3555;53.248;10.336;2023-04-01T03:32:23;9.60;99.90
7028;DHT22;3555;53.248;10.336;2023-04-01T03:34:49;9.70;99.90
7028;DHT22;3555;53.248;10.336;2023-04-01T03:37:16;9.70;99.90
7028;DHT22;3555;53.248;10.336;2023-04-01T03:39:43;9.60;99.90
7028;DHT22;3555;53.248;10.336;2023-04-01T03:42:11;9.60;99.90
7028;DHT22;3555;53.248;10.336;2023-04-01T03:44:37;9.70;99.90
7028;DHT22;3555;53.248;10.336;2023-04-01T03:47:06;9.60;99.90
7028;DHT22;3555;53.248;10.336;2023-04-01T03:49:34;9.70;99.90
7028;DHT22;3555;53.248;10.336;2023-04-01T03:52:01;9.60;99.90
7028;DHT22;3555;53.248;10.336;2023-04-01T03:54:28;9.60;99.90
7028;DHT22;3555;53.248;10.336;2023-04-01T03:56:55;9.70;99.90
7028;DHT22;3555;53.248;10.336;2023-04-01T03:59:23;9.70;99.90
7028;DHT22;3555;53.248;10.336;2023-04-01T04:01:50;9.70;99.90
7028;DHT22;3555;53.248;10.336;2023-04-01T04:04:18;9.60;99.90
7028;DHT22;3555;53.248;10.336;2023-04-01T04:06:45;9.70;99.90
7028;DHT22;3555;53.248;10.336;2023-04-01T04:09:12;9.70;99.90
7028;DHT22;3555;53.248;10.336;2023-04-01T04:11:39;9.70;99.90
7028;DHT22;3555;53.248;10.336;2023-04-01T04:14:06;9.70;99.90
7028;DHT22;3555;53.248;10.336;2023-04-01T04:16:35;9.60;99.90
7028;DHT22;3555;53.248;10.336;2023-04-01T04:19:03;9.70;99.90
7028;DHT22;3555;53.248;10.336;2023-04-01T04:21:31;9.90;99.90
7028;DHT22;3555;53.248;10.336;2023-04-01T04:23:59;9.60;99.90
7028;DHT22;3555;53.248;10.336;2023-04-01T04:26:26;9.70;99.90
7028;DHT22;3555;53.248;10.336;2023-04-01T04:28:54;9.80;99.90
7028;DHT22;3555;53.248;10.336;2023-04-01T04:31:22;9.60;99.90
7028;DHT22;3555;53.248;10.336;2023-04-01T04:33:50;9.70;99.90
7028;DHT22;3555;53.248;10.336;2023-04-01T04:36:17;9.70;99.90
7028;DHT22;3555;53.248;10.336;2023-04-01T04:38:45;9.80;99.90
7028;DHT22;3555;53.248;10.336;2023-04-01T04:41:13;9.80;99.90
7028;DHT22;3555;53.248;10.336;2023-04-01T04:43:41;9.80;99.90
7028;DHT22;3555;53.248;10.336;2023-04-01T04:46:08;9.80;99.90
7028;DHT22;3555;53.248;10.336;2023-04-01T04:48:36;9.70;99.90
7028;DHT22;3555;53.248;10.336;2023-04-01T04:51:03;9.80;99.90
7028;DHT22;3555;53.248;10.336;2023-04-01T04:53:30;9.80;99.90
7028;DHT22;3555;53.248;10.336;2023-04-01T04:55:58;9.90;99.90
7028;DHT22;3555;53.248;10.336;2023-04-01T04:58:25;9.90;99.90
7028;DHT22;3555;53.248;10.336;2023-04-01T05:00:52;9.90;99.90
7028;DHT22;3555;53.248;10.336;2023-04-01T05:03:19;9.80;99.90
7028;DHT22;3555;53.248;10.336;2023-04-01T05:05:49;9.80;99.90
7028;DHT22;3555;53.248;10.336;2023-04-01T05:08:17;9.80;99.90
7028;DHT22;3555;53.248;10.336;2023-04-01T05:10:44;9.80;99.90
7028;DHT22;3555;53.248;10.336;2023-04-01T05:13:12;9.60;99.90
7028;DHT22;3555;53.248;10.336;2023-04-01T05:15:39;9.60;99.90
7028;DHT22;3555;53.248;10.336;2023-04-01T05:18:06;9.60;99.90
7028;DHT22;3555;53.248;10.336;2023-04-01T05:20:33;9.70;99.90
7028;DHT22;3555;53.248;10.336;2023-04-01T05:23:00;9.50;99.90
7028;DHT22;3555;53.248;10.336;2023-04-01T05:25:28;9.50;99.90
7028;DHT22;3555;53.248;10.336;2023-04-01T05:27:54;9.40;99.90
7028;DHT22;3555;53.248;10.336;2023-04-01T05:30:23;9.40;99.90
7028;DHT22;3555;53.248;10.336;2023-04-01T05:32:50;9.50;99.90
7028;DHT22;3555;53.248;10.336;2023-04-01T05:35:16;9.50;99.90
7028;DHT22;3555;53.248;10.336;2023-04-01T05:37:43;9.60;99.90
7028;DHT22;3555;53.248;10.336;2023-04-01T05:40:11;9.60;99.90
7028;DHT22;3555;53.248;10.336;2023-04-01T05:42:38;9.80;99.90
7028;DHT22;3555;53.248;10.336;2023-04-01T05:45:06;9.70;99.90
7028;DHT22;3555;53.248;10.336;2023-04-01T05:47:34;9.80;99.90
7028;DHT22;3555;53.248;10.336;2023-04-01T05:50:01;9.80;99.90
7028;DHT22;3555;53.248;10.336;2023-04-01T05:52:28;9.70;99.90
7028;DHT22;3555;53.248;10.336;2023-04-01T05:54:55;9.70;99.90
7028;DHT22;3555;53.248;10.336;2023-04-01T05:57:21;9.70;99.90
7028;DHT22;3555;53.248;10.336;2023-04-01T05:59:48;9.80;99.90
7028;DHT22;3555;53.248;10.336;2023-04-01T06:02:17;9.90;99.90
7028;DHT22;3555;53.248;10.336;2023-04-01T06:04:45;9.90;99.90
7028;DHT22;3555;53.248;10.336;2023-04-01T06:07:13;9.80;99.90
7028;DHT22;3555;53.248;10.336;2023-04-01T06:09:41;9.90;99.90
7028;DHT22;3555;53.248;10.336;2023-04-01T06:12:22;9.80;99.90
7028;DHT22;3555;53.248;10.336;2023-04-01T06:15:06;9.90;99.90
7028;DHT22;3555;53.248;10.336;2023-04-01T06:17:48;9.90;99.90
7028;DHT22;3555;53.248;10.336;2023-04-01T06:20:25;10.00;99.90
7028;DHT22;3555;53.248;10.336;2023-04-01T06:23:04;9.90;99.90
7028;DHT22;3555;53.248;10.336;2023-04-01T06:25:47;9.90;99.90
7028;DHT22;3555;53.248;10.336;2023-04-01T06:28:51;10.60;99.90
7028;DHT22;3555;53.248;10.336;2023-04-01T06:31:30;9.90;99.90
7028;DHT22;3555;53.248;10.336;2023-04-01T06:34:11;10.00;99.90
7028;DHT22;3555;53.248;10.336;2023-04-01T06:36:58;10.00;99.90
7028;DHT22;3555;53.248;10.336;2023-04-01T06:42:42;10.00;99.90
7028;DHT22;3555;53.248;10.336;2023-04-01T06:45:22;10.10;99.90
7028;DHT22;3555;53.248;10.336;2023-04-01T06:48:11;10.10;99.90
7028;DHT22;3555;53.248;10.336;2023-04-01T06:50:48;10.10;99.90
7028;DHT22;3555;53.248;10.336;2023-04-01T06:53:23;10.00;99.90
7028;DHT22;3555;53.248;10.336;2023-04-01T06:55:53;9.90;99.90
7028;DHT22;3555;53.248;10.336;2023-04-01T06:58:23;9.90;99.90
7028;DHT22;3555;53.248;10.336;2023-04-01T07:00:53;9.60;99.90
7028;DHT22;3555;53.248;10.336;2023-04-01T07:03:29;9.20;99.90
7028;DHT22;3555;53.248;10.336;2023-04-01T07:06:01;9.20;99.90
7028;DHT22;3555;53.248;10.336;2023-04-01T07:08:34;8.90;99.90
7028;DHT22;3555;53.248;10.336;2023-04-01T07:11:03;8.70;99.90
7028;DHT22;3555;53.248;10.336;2023-04-01T07:13:34;8.60;99.90
7028;DHT22;3555;53.248;10.336;2023-04-01T07:16:12;8.40;99.90
7028;DHT22;3555;53.248;10.336;2023-04-01T07:18:44;8.30;99.90
7028;DHT22;3555;53.248;10.336;2023-04-01T07:21:25;8.40;99.90
7028;DHT22;3555;53.248;10.336;2023-04-01T07:23:57;8.20;99.90
7028;DHT22;3555;53.248;10.336;2023-04-01T07:26:26;8.20;99.90
7028;DHT22;3555;53.248;10.336;2023-04-01T07:28:54;8.20;99.90
7028;DHT22;3555;53.248;10.336;2023-04-01T07:31:36;8.00;99.90
7028;DHT22;3555;53.248;10.336;2023-04-01T07:34:11;7.90;99.90
7028;DHT22;3555;53.248;10.336;2023-04-01T07:36:43;7.80;99.90
7028;DHT22;3555;53.248;10.336;2023-04-01T07:39:25;7.70;99.90
7028;DHT22;3555;53.248;10.336;2023-04-01T07:41:56;7.70;99.90
7028;DHT22;3555;53.248;10.336;2023-04-01T07:44:32;7.60;99.90
7028;DHT22;3555;53.248;10.336;2023-04-01T07:47:20;7.50;99.90
7028;DHT22;3555;53.248;10.336;2023-04-01T07:49:57;7.50;99.90
7028;DHT22;3555;53.248;10.336;2023-04-01T07:52:35;7.60;99.90
7028;DHT22;3555;53.248;10.336;2023-04-01T07:55:08;7.50;99.90
7028;DHT22;3555;53.248;10.336;2023-04-01T07:57:43;7.40;99.90
7028;DHT22;3555;53.248;10.336;2023-04-01T08:00:16;7.40;99.90
7028;DHT22;3555;53.248;10.336;2023-04-01T08:03:03;7.40;99.90
7028;DHT22;3555;53.248;10.336;2023-04-01T08:05:36;7.30;99.90
7028;DHT22;3555;53.248;10.336;2023-04-01T08:08:12;6.70;99.90
7028;DHT22;3555;53.248;10.336;2023-04-01T08:10:48;7.30;99.90
7028;DHT22;3555;53.248;10.336;2023-04-01T08:13:21;7.30;99.90
7028;DHT22;3555;53.248;10.336;2023-04-01T08:15:57;7.20;99.90
7028;DHT22;3555;53.248;10.336;2023-04-01T08:18:34;7.20;99.90
7028;DHT22;3555;53.248;10.336;2023-04-01T08:21:10;7.30;99.90
7028;DHT22;3555;53.248;10.336;2023-04-01T08:23:41;7.30;99.90
7028;DHT22;3555;53.248;10.336;2023-04-01T08:26:18;7.30;99.90
7028;DHT22;3555;53.248;10.336;2023-04-01T08:28:52;7.30;99.90
7028;DHT22;3555;53.248;10.336;2023-04-01T08:31:24;7.30;99.90
7028;DHT22;3555;53.248;10.336;2023-04-01T08:33:54;7.20;99.90
7028;DHT22;3555;53.248;10.336;2023-04-01T08:36:25;7.20;99.90
7028;DHT22;3555;53.248;10.336;2023-04-01T08:38:57;7.10;99.90
7028;DHT22;3555;53.248;10.336;2023-04-01T08:42:04;7.10;99.90
7028;DHT22;3555;53.248;10.336;2023-04-01T08:44:59;7.10;99.90
7028;DHT22;3555;53.248;10.336;2023-04-01T08:47:46;7.00;99.90
7028;DHT22;3555;53.248;10.336;2023-04-01T08:50:40;6.90;99.90
7028;DHT22;3555;53.248;10.336;2023-04-01T08:53:19;6.80;99.90
7028;DHT22;3555;53.248;10.336;2023-04-01T08:55:56;6.80;99.90
7028;DHT22;3555;53.248;10.336;2023-04-01T08:58:53;6.90;99.90
7028;DHT22;3555;53.248;10.336;2023-04-01T09:01:33;6.90;99.90
7028;DHT22;3555;53.248;10.336;2023-04-01T09:04:18;6.80;99.90
7028;DHT22;3555;53.248;10.336;2023-04-01T09:07:06;6.80;99.90
7028;DHT22;3555;53.248;10.336;2023-04-01T09:13:04;6.80;99.90
7028;DHT22;3555;53.248;10.336;2023-04-01T09:15:58;6.80;99.90
7028;DHT22;3555;53.248;10.336;2023-04-01T09:18:54;7.00;99.90
7028;DHT22;3555;53.248;10.336;2023-04-01T09:21:37;6.90;99.90
7028;DHT22;3555;53.248;10.336;2023-04-01T09:24:28;6.90;99.90
7028;DHT22;3555;53.248;10.336;2023-04-01T09:27:05;6.90;99.90
7028;DHT22;3555;53.248;10.336;2023-04-01T09:29:56;7.00;99.90
7028;DHT22;3555;53.248;10.336;2023-04-01T09:32:42;7.00;99.90
7028;DHT22;3555;53.248;10.336;2023-04-01T09:35:39;7.00;99.90
7028;DHT22;3555;53.248;10.336;2023-04-01T09:38:20;7.00;99.90
7028;DHT22;3555;53.248;10.336;2023-04-01T09:40:55;7.00;99.90
7028;DHT22;3555;53.248;10.336;2023-04-01T09:43:26;7.00;99.90
7028;DHT22;3555;53.248;10.336;2023-04-01T09:49:13;6.90;99.90
7028;DHT22;3555;53.248;10.336;2023-04-01T09:51:53;7.20;99.90
7028;DHT22;3555;53.248;10.336;2023-04-01T09:54:36;6.80;99.90
7028;DHT22;3555;53.248;10.336;2023-04-01T09:57:36;6.80;99.90
7028;DHT22;3555;53.248;10.336;2023-04-01T10:00:24;6.80;99.90
7028;DHT22;3555;53.248;10.336;2023-04-01T10:09:41;6.80;99.90
7028;DHT22;3555;53.248;10.336;2023-04-01T10:12:49;6.70;99.90
7028;DHT22;3555;53.248;10.336;2023-04-01T10:15:40;6.80;99.90
7028;DHT22;3555;53.248;10.336;2023-04-01T10:18:36;6.80;99.90
7028;DHT22;3555;53.248;10.336;2023-04-01T10:26:14;6.90;99.90
7028;DHT22;3555;53.248;10.336;2023-04-01T10:29:02;6.90;99.90
7028;DHT22;3555;53.248;10.336;2023-04-01T10:35:03;6.80;99.90
7028;DHT22;3555;53.248;10.336;2023-04-01T10:37:55;6.70;99.90
7028;DHT22;3555;53.248;10.336;2023-04-01T10:40:44;6.70;99.90
7028;DHT22;3555;53.248;10.336;2023-04-01T10:43:57;6.70;99.90
7028;DHT22;3555;53.248;10.336;2023-04-01T10:50:10;6.60;99.90
7028;DHT22;3555;53.248;10.336;2023-04-01T10:53:11;6.60;99.90
7028;DHT22;3555;53.248;10.336;2023-04-01T10:56:18;6.70;99.90
7028;DHT22;3555;53.248;10.336;2023-04-01T11:05:50;6.70;99.90
7028;DHT22;3555;53.248;10.336;2023-04-01T11:09:00;6.70;99.90
7028;DHT22;3555;53.248;10.336;2023-04-01T11:24:44;6.60;99.90
7028;DHT22;3555;53.248;10.336;2023-04-01T11:27:39;6.70;99.90
7028;DHT22;3555;53.248;10.336;2023-04-01T11:30:28;6.70;99.90
7028;DHT22;3555;53.248;10.336;2023-04-01T11:33:03;6.80;99.90
7028;DHT22;3555;53.248;10.336;2023-04-01T11:36:02;6.80;99.90
7028;DHT22;3555;53.248;10.336;2023-04-01T11:41:34;6.80;99.90
7028;DHT22;3555;53.248;10.336;2023-04-01T11:44:15;6.90;99.90
7028;DHT22;3555;53.248;10.336;2023-04-01T11:46:54;6.50;99.90
7028;DHT22;3555;53.248;10.336;2023-04-01T11:49:36;6.80;99.90
7028;DHT22;3555;53.248;10.336;2023-04-01T11:52:31;6.80;99.90
7028;DHT22;3555;53.248;10.336;2023-04-01T11:55:12;6.80;99.90
7028;DHT22;3555;53.248;10.336;2023-04-01T11:57:55;6.90;99.90
7028;DHT22;3555;53.248;10.336;2023-04-01T12:00:50;6.90;99.90
7028;DHT22;3555;53.248;10.336;2023-04-01T12:03:37;6.90;99.90
7028;DHT22;3555;53.248;10.336;2023-04-01T12:06:13;6.80;99.90
7028;DHT22;3555;53.248;10.336;2023-04-01T12:08:46;6.80;99.90
7028;DHT22;3555;53.248;10.336;2023-04-01T12:11:24;6.80;99.90
7028;DHT22;3555;53.248;10.336;2023-04-01T12:14:02;6.80;99.90
7028;DHT22;3555;53.248;10.336;2023-04-01T12:16:49;6.70;99.90
7028;DHT22;3555;53.248;10.336;2023-04-01T12:19:23;6.80;99.90
7028;DHT22;3555;53.248;10.336;2023-04-01T12:22:06;6.90;99.90
7028;DHT22;3555;53.248;10.336;2023-04-01T12:24:45;6.90;99.90
7028;DHT22;3555;53.248;10.336;2023-04-01T12:27:32;6.80;99.90
7028;DHT22;3555;53.248;10.336;2023-04-01T12:33:30;6.70;99.90
7028;DHT22;3555;53.248;10.336;2023-04-01T12:36:10;6.60;99.90
7028;DHT22;3555;53.248;10.336;2023-04-01T12:38:48;6.60;99.90
7028;DHT22;3555;53.248;10.336;2023-04-01T12:41:24;6.60;99.90
7028;DHT22;3555;53.248;10.336;2023-04-01T12:44:13;6.70;99.90
7028;DHT22;3555;53.248;10.336;2023-04-01T12:52:41;6.60;99.90
7028;DHT22;3555;53.248;10.336;2023-04-01T12:55:25;6.60;99.90
7028;DHT22;3555;53.248;10.336;2023-04-01T13:01:29;6.60;99.90
7028;DHT22;3555;53.248;10.336;2023-04-01T13:04:14;6.50;99.90
7028;DHT22;3555;53.248;10.336;2023-04-01T13:06:58;6.60;99.90
7028;DHT22;3555;53.248;10.336;2023-04-01T13:09:39;6.50;99.90
7028;DHT22;3555;53.248;10.336;2023-04-01T13:12:28;6.50;99.90
7028;DHT22;3555;53.248;10.336;2023-04-01T13:15:17;6.50;99.90
7028;DHT22;3555;53.248;10.336;2023-04-01T13:17:52;6.50;99.90
7028;DHT22;3555;53.248;10.336;2023-04-01T13:20:29;6.50;99.90
7028;DHT22;3555;53.248;10.336;2023-04-01T13:23:09;6.60;99.90
7028;DHT22;3555;53.248;10.336;2023-04-01T13:25:43;6.70;99.90
7028;DHT22;3555;53.248;10.336;2023-04-01T13:28:15;6.50;99.90
7028;DHT22;3555;53.248;10.336;2023-04-01T13:30:49;6.40;99.90
7028;DHT22;3555;53.248;10.336;2023-04-01T13:33:26;6.40;99.90
7028;DHT22;3555;53.248;10.336;2023-04-01T13:36:05;6.40;99.90
7028;DHT22;3555;53.248;10.336;2023-04-01T13:38:52;6.40;99.90
7028;DHT22;3555;53.248;10.336;2023-04-01T13:41:29;6.30;99.90
7028;DHT22;3555;53.248;10.336;2023-04-01T13:44:09;6.30;99.90
7028;DHT22;3555;53.248;10.336;2023-04-01T13:46:56;6.30;99.90
7028;DHT22;3555;53.248;10.336;2023-04-01T13:52:38;6.30;99.90
7028;DHT22;3555;53.248;10.336;2023-04-01T13:55:35;6.20;99.90
7028;DHT22;3555;53.248;10.336;2023-04-01T13:58:28;6.20;99.90
7028;DHT22;3555;53.248;10.336;2023-04-01T14:01:06;6.30;99.90
7028;DHT22;3555;53.248;10.336;2023-04-01T14:03:50;6.10;99.90
7028;DHT22;3555;53.248;10.336;2023-04-01T14:06:29;6.10;99.90
7028;DHT22;3555;53.248;10.336;2023-04-01T14:09:13;6.00;99.90
7028;DHT22;3555;53.248;10.336;2023-04-01T14:11:53;5.90;99.90
7028;DHT22;3555;53.248;10.336;2023-04-01T14:14:34;5.80;99.90
7028;DHT22;3555;53.248;10.336;2023-04-01T14:17:27;5.90;99.90
7028;DHT22;3555;53.248;10.336;2023-04-01T14:20:22;5.90;99.90
7028;DHT22;3555;53.248;10.336;2023-04-01T14:23:02;5.80;99.90
7028;DHT22;3555;53.248;10.336;2023-04-01T14:25:46;5.80;99.90
7028;DHT22;3555;53.248;10.336;2023-04-01T14:28:23;5.90;99.90
7028;DHT22;3555;53.248;10.336;2023-04-01T14:31:04;5.80;99.90
7028;DHT22;3555;53.248;10.336;2023-04-01T14:33:45;5.80;99.90
7028;DHT22;3555;53.248;10.336;2023-04-01T14:36:33;5.70;99.90
7028;DHT22;3555;53.248;10.336;2023-04-01T14:39:20;5.80;99.90
7028;DHT22;3555;53.248;10.336;2023-04-01T14:42:03;5.80;99.90
7028;DHT22;3555;53.248;10.336;2023-04-01T14:47:43;5.80;99.90
7028;DHT22;3555;53.248;10.336;2023-04-01T14:50:15;5.80;99.90
7028;DHT22;3555;53.248;10.336;2023-04-01T14:52:49;5.80;99.90
7028;DHT22;3555;53.248;10.336;2023-04-01T14:55:28;5.80;99.90
7028;DHT22;3555;53.248;10.336;2023-04-01T14:58:08;5.80;99.90
7028;DHT22;3555;53.248;10.336;2023-04-01T15:00:48;5.80;99.90
7028;DHT22;3555;53.248;10.336;2023-04-01T15:03:22;5.80;99.90
7028;DHT22;3555;53.248;10.336;2023-04-01T15:05:55;5.60;99.90
7028;DHT22;3555;53.248;10.336;2023-04-01T15:08:24;5.60;99.90
7028;DHT22;3555;53.248;10.336;2023-04-01T15:11:19;5.60;99.90
7028;DHT22;3555;53.248;10.336;2023-04-01T15:16:53;5.60;99.90
7028;DHT22;3555;53.248;10.336;2023-04-01T15:19:30;5.60;99.90
7028;DHT22;3555;53.248;10.336;2023-04-01T15:22:24;5.50;99.90
7028;DHT22;3555;53.248;10.336;2023-04-01T15:27:56;5.50;99.90
7028;DHT22;3555;53.248;10.336;2023-04-01T15:30:30;5.50;99.90
7028;DHT22;3555;53.248;10.336;2023-04-01T15:33:13;5.50;99.90
7028;DHT22;3555;53.248;10.336;2023-04-01T15:35:48;5.60;99.90
7028;DHT22;3555;53.248;10.336;2023-04-01T15:38:25;5.60;99.90
7028;DHT22;3555;53.248;10.336;2023-04-01T15:41:01;5.60;99.90
7028;DHT22;3555;53.248;10.336;2023-04-01T15:43:39;5.50;99.90
7028;DHT22;3555;53.248;10.336;2023-04-01T15:46:24;5.50;99.90
7028;DHT22;3555;53.248;10.336;2023-04-01T15:49:08;5.30;99.90
7028;DHT22;3555;53.248;10.336;2023-04-01T15:51:44;5.40;99.90
7028;DHT22;3555;53.248;10.336;2023-04-01T15:54:28;5.40;99.90
7028;DHT22;3555;53.248;10.336;2023-04-01T15:57:12;5.40;99.90
7028;DHT22;3555;53.248;10.336;2023-04-01T16:00:04;5.30;99.90
7028;DHT22;3555;53.248;10.336;2023-04-01T16:02:36;5.30;99.90
7028;DHT22;3555;53.248;10.336;2023-04-01T16:05:23;5.30;99.90
7028;DHT22;3555;53.248;10.336;2023-04-01T16:08:09;5.30;99.90
7028;DHT22;3555;53.248;10.336;2023-04-01T16:10:59;5.40;99.90
7028;DHT22;3555;53.248;10.336;2023-04-01T16:13:37;5.30;99.90
7028;DHT22;3555;53.248;10.336;2023-04-01T16:16:19;5.30;99.90
7028;DHT22;3555;53.248;10.336;2023-04-01T16:19:03;5.20;99.90
7028;DHT22;3555;53.248;10.336;2023-04-01T16:21:41;5.20;99.90
7028;DHT22;3555;53.248;10.336;2023-04-01T16:24:15;5.20;99.90
7028;DHT22;3555;53.248;10.336;2023-04-01T16:26:49;5.30;99.90
7028;DHT22;3555;53.248;10.336;2023-04-01T16:29:24;5.10;99.90
7028;DHT22;3555;53.248;10.336;2023-04-01T16:32:12;5.20;99.90
7028;DHT22;3555;53.248;10.336;2023-04-01T16:34:44;5.10;99.90
7028;DHT22;3555;53.248;10.336;2023-04-01T16:37:17;5.00;99.90
7028;DHT22;3555;53.248;10.336;2023-04-01T16:39:50;5.20;99.90
7028;DHT22;3555;53.248;10.336;2023-04-01T16:42:28;5.10;99.90
7028;DHT22;3555;53.248;10.336;2023-04-01T16:45:06;5.00;99.90
7028;DHT22;3555;53.248;10.336;2023-04-01T16:47:47;4.90;99.90
7028;DHT22;3555;53.248;10.336;2023-04-01T16:50:19;5.00;99.90
7028;DHT22;3555;53.248;10.336;2023-04-01T16:52:57;4.90;99.90
7028;DHT22;3555;53.248;10.336;2023-04-01T16:55:35;4.80;99.90
7028;DHT22;3555;53.248;10.336;2023-04-01T16:58:02;4.80;99.90
7028;DHT22;3555;53.248;10.336;2023-04-01T17:00:36;4.80;99.90
7028;DHT22;3555;53.248;10.336;2023-04-01T17:03:11;4.80;99.90
7028;DHT22;3555;53.248;10.336;2023-04-01T17:05:49;4.70;99.90
7028;DHT22;3555;53.248;10.336;2023-04-01T17:08:36;4.70;99.90
7028;DHT22;3555;53.248;10.336;2023-04-01T17:11:12;4.70;99.90
7028;DHT22;3555;53.248;10.336;2023-04-01T17:13:46;4.70;99.90
7028;DHT22;3555;53.248;10.336;2023-04-01T17:16:50;4.70;99.90
7028;DHT22;3555;53.248;10.336;2023-04-01T17:19:28;4.70;99.90
7028;DHT22;3555;53.248;10.336;2023-04-01T17:22:01;4.50;99.90
7028;DHT22;3555;53.248;10.336;2023-04-01T17:24:45;4.50;99.90
7028;DHT22;3555;53.248;10.336;2023-04-01T17:27:22;4.40;99.90
7028;DHT22;3555;53.248;10.336;2023-04-01T17:30:09;4.40;99.90
7028;DHT22;3555;53.248;10.336;2023-04-01T17:32:49;4.40;99.90
7028;DHT22;3555;53.248;10.336;2023-04-01T17:35:24;4.40;99.90
7028;DHT22;3555;53.248;10.336;2023-04-01T17:38:03;4.40;99.90
7028;DHT22;3555;53.248;10.336;2023-04-01T17:40:44;4.30;99.90
7028;DHT22;3555;53.248;10.336;2023-04-01T17:43:24;4.30;99.90
7028;DHT22;3555;53.248;10.336;2023-04-01T17:45:57;4.30;99.90
7028;DHT22;3555;53.248;10.336;2023-04-01T17:48:38;4.30;99.90
7028;DHT22;3555;53.248;10.336;2023-04-01T17:51:19;4.30;99.90
7028;DHT22;3555;53.248;10.336;2023-04-01T17:53:55;4.30;99.90
7028;DHT22;3555;53.248;10.336;2023-04-01T17:56:41;4.20;99.90
7028;DHT22;3555;53.248;10.336;2023-04-01T17:59:19;4.20;99.90
7028;DHT22;3555;53.248;10.336;2023-04-01T18:01:55;4.30;99.90
7028;DHT22;3555;53.248;10.336;2023-04-01T18:04:56;4.20;99.90
7028;DHT22;3555;53.248;10.336;2023-04-01T18:07:43;4.10;99.90
7028;DHT22;3555;53.248;10.336;2023-04-01T18:10:29;4.10;99.90
7028;DHT22;3555;53.248;10.336;2023-04-01T18:13:31;4.10;99.90
7028;DHT22;3555;53.248;10.336;2023-04-01T18:16:15;4.00;99.90